首页
METAR-TAF:

METAR-TAF

机场 :

Garfield County Regional Airport

Rifle, 科羅拉多州, 美国

纬度: 39-31-30N, 经度: 107-43-38W, 海拔: 1690米

当前天气观测

该预报发布于21分钟前的23:53 UTC
风速12节,风向西,有时为21节阵风
温度 35°C
湿度 9%
气压 1017 hPa
能見度: 16.1公里
天空无云

METAR: KRIL 122353Z AUTO 27012G21KT 10SM CLR 35/M03 A3003 RMK AO2 SLP087 T03501028 10361 20300 58013

时间: 18:14 (00:14 UTC)

预报

该预报发布于54分钟前的23:20 UTC
预报有效从13日的 00点(UTC)到 13日的 24点(UTC)
风速13节,风向西,有时为21节阵风
能見度: 10公里
少量云层高于12000英尺
从 13日的 0400点(UTC)
风速4节,风向东转东南
能見度: 10公里
少量云层高于15000英尺
从 13日的 1300点(UTC)
风速3节,风向多变
能見度: 10公里
天空无云
从 13日的 1800点(UTC)
风速16节,风向西,有时为26节阵风
能見度: 10公里
少量云层高于25000英尺

TAF: KRIL 122320Z 1300/1324 27013G21KT P6SM FEW120 FM130400 12004KT P6SM FEW150 FM131300 VRB03KT P6SM SKC FM131800 28016G26KT P6SM FEW250

超过4000个机场的气象观测和天气预报(METAR&TAF报告)。

可查询的气象台以黄色和红色小点在地图上表示。

将鼠标移到小点上方,可查看气象台名称。

然后点击查看天气观测和预报。

如需切换地图:点击带黑十字的绿色按钮放大地图;点击带横线的绿色按钮缩小地图;或者点击绿色箭头查看邻近地区的地图。


METAR-TAF: